createdAt,value
2022-11-16T00:01:32.596Z,1.15
2022-11-16T00:04:01.249Z,1.00
2022-11-16T00:06:29.225Z,0.73
2022-11-16T00:09:17.768Z,0.93
2022-11-16T00:11:44.621Z,0.93
2022-11-16T00:14:11.476Z,1.33
2022-11-16T00:16:38.705Z,0.40
2022-11-16T00:19:06.773Z,0.60
2022-11-16T00:21:34.656Z,0.60
2022-11-16T00:24:01.644Z,0.63
2022-11-16T00:26:28.701Z,0.50
2022-11-16T00:28:56.113Z,0.80
2022-11-16T00:31:23.758Z,0.70
2022-11-16T00:33:51.535Z,1.10
2022-11-16T00:36:18.315Z,0.77
2022-11-16T00:38:45.085Z,0.70
2022-11-16T00:41:12.004Z,0.70
2022-11-16T00:43:38.769Z,0.60
2022-11-16T00:46:05.759Z,0.57
2022-11-16T00:48:32.723Z,0.47
2022-11-16T00:50:59.637Z,0.60
2022-11-16T00:53:26.446Z,0.60
2022-11-16T00:55:53.168Z,0.52
2022-11-16T00:58:21.275Z,0.40
2022-11-16T01:00:48.032Z,0.50
2022-11-16T01:03:15.811Z,0.40
2022-11-16T01:05:43.083Z,0.73
2022-11-16T01:08:10.329Z,1.10
2022-11-16T01:10:40.113Z,0.32
2022-11-16T01:13:07.153Z,0.77
2022-11-16T01:15:34.072Z,0.40
2022-11-16T01:18:01.038Z,0.52
2022-11-16T01:20:29.626Z,0.57
2022-11-16T01:22:56.653Z,0.63
2022-11-16T01:25:23.407Z,0.40
2022-11-16T01:27:50.198Z,0.45
2022-11-16T01:30:17.116Z,0.28
2022-11-16T01:32:43.912Z,0.20
2022-11-16T01:35:18.570Z,0.17
2022-11-16T01:37:45.534Z,2.15
2022-11-16T01:40:14.224Z,0.20
2022-11-16T01:42:41.465Z,0.10
2022-11-16T01:45:20.117Z,0.22
2022-11-16T01:47:47.116Z,0.20
2022-11-16T01:50:17.165Z,0.30
2022-11-16T01:52:52.033Z,0.30
2022-11-16T01:55:18.905Z,0.30
2022-11-16T01:57:47.823Z,0.10
2022-11-16T02:00:15.596Z,0.10
2022-11-16T02:02:42.642Z,0.10
2022-11-16T02:05:12.314Z,0.10
2022-11-16T02:08:39.246Z,0.50
2022-11-16T02:11:19.128Z,1.10
2022-11-16T02:14:11.872Z,1.17
2022-11-16T02:19:49.721Z,0.65
2022-11-16T02:22:42.010Z,0.50
2022-11-16T02:25:21.581Z,0.60
2022-11-16T02:28:06.249Z,0.45
2022-11-16T02:30:33.904Z,0.45
2022-11-16T02:33:10.791Z,0.40
2022-11-16T02:35:45.897Z,0.60
2022-11-16T02:38:19.050Z,0.47
2022-11-16T02:40:50.261Z,0.45
2022-11-16T02:43:23.310Z,0.50
2022-11-16T02:45:54.939Z,0.60
2022-11-16T02:48:27.336Z,0.60
2022-11-16T02:53:22.373Z,0.68
2022-11-16T02:55:49.130Z,0.80
2022-11-16T02:58:26.694Z,0.68
2022-11-16T03:01:08.835Z,0.88
2022-11-16T03:03:39.866Z,0.85
2022-11-16T03:06:31.441Z,0.40
2022-11-16T03:11:55.097Z,0.60
2022-11-16T03:14:25.524Z,0.73
2022-11-16T03:17:00.563Z,0.20
2022-11-16T03:19:44.675Z,0.22
2022-11-16T03:22:35.727Z,0.10
2022-11-16T03:25:04.798Z,0.40
2022-11-16T03:27:46.175Z,0.35
2022-11-16T03:30:23.873Z,0.28
2022-11-16T03:33:06.585Z,0.30
2022-11-16T03:35:41.748Z,0.52
2022-11-16T03:38:10.695Z,0.20
2022-11-16T03:40:38.607Z,0.28
2022-11-16T03:43:08.018Z,0.28
2022-11-16T03:45:36.705Z,0.10
2022-11-16T03:48:03.585Z,0.20
2022-11-16T03:50:30.265Z,0.40
2022-11-16T03:52:56.986Z,0.30
2022-11-16T03:55:24.791Z,0.35
2022-11-16T03:57:51.500Z,0.30
2022-11-16T04:00:18.410Z,0.35
2022-11-16T04:02:45.246Z,0.15
2022-11-16T04:05:30.815Z,0.30
2022-11-16T04:08:16.290Z,0.30
2022-11-16T04:11:02.212Z,0.40
2022-11-16T04:13:50.270Z,0.40
2022-11-16T04:16:35.746Z,0.30
2022-11-16T04:19:21.308Z,0.17
2022-11-16T04:22:14.969Z,0.20
2022-11-16T04:24:45.958Z,0.32
2022-11-16T04:27:34.253Z,0.32
2022-11-16T04:30:03.001Z,0.38
2022-11-16T04:32:48.647Z,0.40
2022-11-16T04:35:33.964Z,0.20
2022-11-16T04:38:00.963Z,0.40
2022-11-16T04:40:29.670Z,0.50
2022-11-16T04:42:58.562Z,0.40
2022-11-16T04:45:45.448Z,0.40
2022-11-16T04:48:13.444Z,0.38
2022-11-16T04:50:40.957Z,0.35
2022-11-16T04:53:08.314Z,0.17
2022-11-16T04:55:35.666Z,0.40
2022-11-16T04:58:02.925Z,0.40
2022-11-16T05:00:30.105Z,0.25
2022-11-16T05:03:01.080Z,0.20
2022-11-16T05:05:28.470Z,0.30
2022-11-16T05:07:55.561Z,0.20
2022-11-16T05:10:22.453Z,0.50
2022-11-16T05:12:50.343Z,0.43
2022-11-16T05:15:19.895Z,0.30
2022-11-16T05:17:47.466Z,0.30
2022-11-16T05:20:50.339Z,0.30
2022-11-16T05:26:02.577Z,0.20
2022-11-16T05:28:29.329Z,0.25
2022-11-16T05:30:56.196Z,0.40
2022-11-16T05:33:24.254Z,0.30
2022-11-16T05:35:51.638Z,0.40
2022-11-16T05:38:19.779Z,0.70
2022-11-16T05:40:46.700Z,0.40
2022-11-16T05:43:13.592Z,0.40
2022-11-16T05:45:40.276Z,0.38
2022-11-16T05:48:08.193Z,1.10
2022-11-16T05:50:39.875Z,0.40
2022-11-16T05:53:09.261Z,0.45
2022-11-16T05:55:36.301Z,0.65
2022-11-16T05:58:03.017Z,0.57
2022-11-16T06:00:30.764Z,0.47
2022-11-16T06:02:57.591Z,0.63
2022-11-16T06:05:24.425Z,1.83
2022-11-16T06:07:51.131Z,0.43
2022-11-16T06:10:17.804Z,0.47
2022-11-16T06:12:44.560Z,0.50
2022-11-16T06:15:11.293Z,0.68
2022-11-16T06:17:38.036Z,0.30
2022-11-16T06:20:05.072Z,0.63
2022-11-16T06:22:31.889Z,0.88
2022-11-16T06:24:58.641Z,0.60
2022-11-16T06:27:25.361Z,0.50
2022-11-16T06:29:52.181Z,0.90
2022-11-16T06:32:18.932Z,1.27
2022-11-16T06:34:45.671Z,2.08
2022-11-16T06:37:12.371Z,2.22
2022-11-16T06:39:39.106Z,1.20
2022-11-16T06:42:05.843Z,1.08
2022-11-16T06:44:32.612Z,1.00
2022-11-16T06:46:59.312Z,1.13
2022-11-16T06:49:26.052Z,2.33
2022-11-16T06:51:52.763Z,1.00
2022-11-16T06:54:19.448Z,1.60
2022-11-16T06:56:46.211Z,1.05
2022-11-16T06:59:12.954Z,1.50
2022-11-16T07:01:39.683Z,1.60
2022-11-16T07:04:06.472Z,1.40
2022-11-16T07:06:33.228Z,1.17
2022-11-16T07:09:01.009Z,1.83
2022-11-16T07:11:27.797Z,1.65
2022-11-16T07:13:54.845Z,1.67
2022-11-16T07:16:22.139Z,2.65
2022-11-16T07:18:48.872Z,3.00
2022-11-16T07:21:17.521Z,2.83
2022-11-16T07:23:44.359Z,2.78
2022-11-16T07:26:11.925Z,4.10
2022-11-16T07:28:43.379Z,1.73
2022-11-16T07:31:14.860Z,1.90
2022-11-16T07:33:41.588Z,2.15
2022-11-16T07:36:13.798Z,2.10
2022-11-16T07:38:40.523Z,1.95
2022-11-16T07:41:11.401Z,2.13
2022-11-16T07:43:38.189Z,1.98
2022-11-16T07:46:44.654Z,3.35
2022-11-16T07:48:53.464Z,2.25
2022-11-16T07:51:20.452Z,2.00
2022-11-16T07:53:47.168Z,2.08
2022-11-16T07:56:14.007Z,2.88
2022-11-16T07:58:41.026Z,2.20
2022-11-16T08:01:15.640Z,2.03
2022-11-16T08:03:44.264Z,2.20
2022-11-16T08:06:31.617Z,2.63
2022-11-16T08:08:59.348Z,2.42
2022-11-16T08:11:26.553Z,2.63
2022-11-16T08:13:53.508Z,3.70
2022-11-16T08:16:22.286Z,2.90
2022-11-16T08:18:49.476Z,3.67
2022-11-16T08:21:18.027Z,3.17
2022-11-16T08:23:46.553Z,3.30
2022-11-16T08:26:17.004Z,3.05
2022-11-16T08:28:45.820Z,3.85
2022-11-16T08:31:15.219Z,3.40
2022-11-16T08:33:42.059Z,4.10
2022-11-16T08:36:14.179Z,4.55
2022-11-16T08:38:41.327Z,4.22
2022-11-16T08:41:08.145Z,4.43
2022-11-16T08:43:36.069Z,4.05
2022-11-16T08:46:03.340Z,4.90
2022-11-16T08:48:30.664Z,3.85
2022-11-16T08:51:19.264Z,4.80
2022-11-16T08:53:48.662Z,4.57
2022-11-16T08:56:17.181Z,3.67
2022-11-16T08:58:44.460Z,3.80
2022-11-16T09:01:19.170Z,4.57
2022-11-16T09:03:46.847Z,5.22
2022-11-16T09:06:14.266Z,5.15
2022-11-16T09:08:43.061Z,4.13
2022-11-16T09:11:13.973Z,7.53
2022-11-16T09:13:40.767Z,3.60
2022-11-16T09:16:08.126Z,3.75
2022-11-16T09:18:36.187Z,5.28
2022-11-16T09:21:03.898Z,4.25
2022-11-16T09:23:30.828Z,3.63
2022-11-16T09:26:01.341Z,3.30
2022-11-16T09:28:28.374Z,3.58
2022-11-16T09:31:04.142Z,3.42
2022-11-16T09:33:32.961Z,4.35
2022-11-16T09:36:07.185Z,2.83
2022-11-16T09:39:13.889Z,4.20
2022-11-16T09:41:44.322Z,4.72
2022-11-16T09:44:24.343Z,2.88
2022-11-16T09:46:57.241Z,3.40
2022-11-16T09:49:50.835Z,3.50
2022-11-16T09:52:26.515Z,2.63
2022-11-16T09:54:55.057Z,2.72
2022-11-16T09:57:28.395Z,2.47
2022-11-16T10:00:02.166Z,2.85
2022-11-16T10:02:40.139Z,4.85
2022-11-16T10:05:32.975Z,2.60
2022-11-16T10:10:38.990Z,4.53
2022-11-16T10:13:11.705Z,3.65
2022-11-16T10:16:08.751Z,4.15
2022-11-16T10:18:42.716Z,3.95
2022-11-16T10:21:18.743Z,3.60
2022-11-16T10:24:14.605Z,2.95
2022-11-16T10:26:55.495Z,2.67
2022-11-16T10:29:50.048Z,3.65
2022-11-16T10:32:34.153Z,3.10
2022-11-16T10:35:13.024Z,2.83
2022-11-16T10:37:46.847Z,2.42
2022-11-16T10:40:23.262Z,2.45
2022-11-16T10:43:11.902Z,1.52
2022-11-16T10:46:13.801Z,1.80
2022-11-16T10:48:54.391Z,1.02
2022-11-16T10:51:21.130Z,0.77
2022-11-16T10:53:47.959Z,1.30
2022-11-16T10:56:40.532Z,1.42
2022-11-16T10:59:09.222Z,1.10
2022-11-16T11:01:50.211Z,1.27
2022-11-16T11:04:23.699Z,1.23
2022-11-16T11:06:59.182Z,2.38
2022-11-16T11:09:30.586Z,1.10
2022-11-16T11:12:54.208Z,0.70
2022-11-16T11:15:26.537Z,1.30
2022-11-16T11:18:19.940Z,1.52
2022-11-16T11:20:53.027Z,1.02
2022-11-16T11:23:25.336Z,1.05
2022-11-16T11:28:32.854Z,1.10
2022-11-16T11:31:11.735Z,1.58
2022-11-16T11:33:44.362Z,0.70
2022-11-16T11:36:20.670Z,1.48
2022-11-16T11:39:00.295Z,1.50
2022-11-16T11:41:34.123Z,1.75
2022-11-16T11:44:06.916Z,1.80
2022-11-16T11:47:18.210Z,0.90
2022-11-16T11:49:34.024Z,1.30
2022-11-16T11:52:11.803Z,1.10
2022-11-16T11:54:46.076Z,0.90
2022-11-16T11:57:23.097Z,0.90
2022-11-16T11:59:54.465Z,1.23
2022-11-16T12:02:42.739Z,1.50
2022-11-16T12:05:15.573Z,0.80
2022-11-16T12:07:54.342Z,1.05
2022-11-16T12:10:39.614Z,0.90
2022-11-16T12:13:06.294Z,1.10
2022-11-16T12:15:59.585Z,2.10
2022-11-16T12:19:03.368Z,1.17
2022-11-16T12:21:36.500Z,1.70
2022-11-16T12:24:03.211Z,1.40
2022-11-16T12:26:46.221Z,1.10
2022-11-16T12:29:21.803Z,1.23
2022-11-16T12:32:42.499Z,2.15
2022-11-16T12:35:11.775Z,1.80
2022-11-16T12:37:50.413Z,0.80
2022-11-16T12:40:23.389Z,1.15
2022-11-16T12:43:16.564Z,0.82
2022-11-16T12:46:03.104Z,1.60
2022-11-16T12:48:53.062Z,0.80
2022-11-16T12:51:50.008Z,0.73
2022-11-16T12:55:03.967Z,1.15
2022-11-16T12:57:47.444Z,0.68
2022-11-16T13:00:16.955Z,0.88
2022-11-16T13:03:12.432Z,1.05
2022-11-16T13:05:42.157Z,1.08
2022-11-16T13:08:33.887Z,1.95
2022-11-16T13:11:09.489Z,1.03
2022-11-16T13:13:39.263Z,1.23
2022-11-16T13:16:07.421Z,0.80
2022-11-16T13:18:38.656Z,0.95
2022-11-16T13:21:11.636Z,0.98
2022-11-16T13:24:19.660Z,0.88
2022-11-16T13:27:23.426Z,1.00
2022-11-16T13:29:57.223Z,0.63
2022-11-16T13:32:32.963Z,0.63
2022-11-16T13:35:01.193Z,1.08
2022-11-16T13:37:37.538Z,1.00
2022-11-16T13:40:07.233Z,0.90
2022-11-16T13:42:44.910Z,1.58
2022-11-16T13:45:22.458Z,0.85
2022-11-16T13:47:52.158Z,0.70
2022-11-16T13:50:25.168Z,0.95
2022-11-16T13:54:10.714Z,2.45
2022-11-16T13:55:58.896Z,0.95
2022-11-16T13:58:27.185Z,1.05
2022-11-16T14:01:01.140Z,1.98
2022-11-16T14:03:31.990Z,1.50
2022-11-16T14:05:59.043Z,0.90
2022-11-16T14:08:37.284Z,1.73
2022-11-16T14:11:05.536Z,1.30
2022-11-16T14:13:38.389Z,1.70
2022-11-16T14:16:17.619Z,1.48
2022-11-16T14:18:48.007Z,2.05
2022-11-16T14:21:20.532Z,1.52
2022-11-16T14:24:02.787Z,2.08
2022-11-16T14:26:40.256Z,0.98
2022-11-16T14:29:09.921Z,1.45
2022-11-16T14:31:53.279Z,1.27
2022-11-16T14:34:41.786Z,1.55
2022-11-16T14:37:30.119Z,0.95
2022-11-16T14:40:17.299Z,1.48
2022-11-16T14:43:09.990Z,2.53
2022-11-16T14:45:39.086Z,1.25
2022-11-16T14:48:15.438Z,2.22
2022-11-16T14:50:45.891Z,3.70
2022-11-16T14:53:18.194Z,0.93
2022-11-16T14:58:23.272Z,1.40
2022-11-16T15:01:02.631Z,1.40
2022-11-16T15:03:41.555Z,1.50
2022-11-16T15:06:08.650Z,2.00
2022-11-16T15:08:50.442Z,2.88
2022-11-16T15:11:51.782Z,4.32
2022-11-16T15:14:22.504Z,1.70
2022-11-16T15:16:54.662Z,3.20
2022-11-16T15:19:22.416Z,2.00
2022-11-16T15:21:57.128Z,3.08
2022-11-16T15:24:31.557Z,1.58
2022-11-16T15:27:29.743Z,2.78
2022-11-16T15:29:56.776Z,2.92
2022-11-16T15:32:23.527Z,3.08
2022-11-16T15:34:53.934Z,4.57
2022-11-16T15:37:30.648Z,3.20
2022-11-16T15:40:02.646Z,3.70
2022-11-16T15:42:29.777Z,4.05
2022-11-16T15:45:00.037Z,3.75
2022-11-16T15:47:27.676Z,3.22
2022-11-16T15:49:55.425Z,3.35
2022-11-16T15:52:53.021Z,3.10
2022-11-16T15:55:32.004Z,3.90
2022-11-16T15:58:13.191Z,4.63
2022-11-16T16:00:40.888Z,5.28
2022-11-16T16:03:24.121Z,5.80
2022-11-16T16:05:51.973Z,5.55
2022-11-16T16:08:35.042Z,6.15
2022-11-16T16:11:12.263Z,3.60
2022-11-16T16:13:44.309Z,3.50
2022-11-16T16:16:24.751Z,2.47
2022-11-16T16:18:52.312Z,3.97
2022-11-16T16:21:19.762Z,2.38
2022-11-16T16:23:52.262Z,2.38
2022-11-16T16:26:19.253Z,3.22
2022-11-16T16:28:47.382Z,3.40
2022-11-16T16:31:14.802Z,3.33
2022-11-16T16:33:41.573Z,3.25
2022-11-16T16:36:11.551Z,3.35
2022-11-16T16:38:39.042Z,3.40
2022-11-16T16:41:07.022Z,2.55
2022-11-16T16:43:34.338Z,4.47
2022-11-16T16:46:03.218Z,3.67
2022-11-16T16:48:30.313Z,3.15
2022-11-16T16:50:57.269Z,4.05
2022-11-16T16:53:23.973Z,5.90
2022-11-16T16:55:50.703Z,4.65
2022-11-16T16:58:17.726Z,5.53
2022-11-16T17:00:44.518Z,4.63
2022-11-16T17:03:12.072Z,3.85
2022-11-16T17:05:38.928Z,3.85
2022-11-16T17:08:05.922Z,4.40
2022-11-16T17:10:32.718Z,3.03
2022-11-16T17:13:02.758Z,3.33
2022-11-16T17:15:29.739Z,3.17
2022-11-16T17:17:57.929Z,3.00
2022-11-16T17:20:24.641Z,8.48
2022-11-16T17:22:51.362Z,7.15
2022-11-16T17:25:18.217Z,4.95
2022-11-16T17:27:44.918Z,6.25
2022-11-16T17:30:12.537Z,7.32
2022-11-16T17:32:39.325Z,9.25
2022-11-16T17:35:06.204Z,7.88
2022-11-16T17:37:32.995Z,8.43
2022-11-16T17:39:59.754Z,7.40
2022-11-16T17:42:26.432Z,7.07
2022-11-16T17:44:54.081Z,4.50
2022-11-16T17:47:20.856Z,4.32
2022-11-16T17:49:47.605Z,4.85
2022-11-16T17:52:14.406Z,4.95
2022-11-16T17:54:41.131Z,4.22
2022-11-16T17:57:07.867Z,7.13
2022-11-16T17:59:34.628Z,7.45
2022-11-16T18:02:01.345Z,11.57
2022-11-16T18:04:28.103Z,8.10
2022-11-16T18:06:56.056Z,6.03
2022-11-16T18:09:22.975Z,5.28
2022-11-16T18:11:49.664Z,6.43
2022-11-16T18:14:16.463Z,6.65
2022-11-16T18:16:44.445Z,6.30
2022-11-16T18:19:16.164Z,5.57
2022-11-16T18:21:43.824Z,4.57
2022-11-16T18:24:11.273Z,3.70
2022-11-16T18:26:39.326Z,4.20
2022-11-16T18:29:07.193Z,4.28
2022-11-16T18:31:34.110Z,3.50
2022-11-16T18:34:01.907Z,3.88
2022-11-16T18:36:28.661Z,7.78
2022-11-16T18:38:55.405Z,8.20
2022-11-16T18:41:25.556Z,6.10
2022-11-16T18:43:53.724Z,7.20
2022-11-16T18:46:28.497Z,7.57
2022-11-16T18:48:57.474Z,7.00
2022-11-16T18:51:26.188Z,6.38
2022-11-16T18:53:53.296Z,6.20
2022-11-16T18:56:20.661Z,4.45
2022-11-16T18:58:52.195Z,6.18
2022-11-16T19:01:22.357Z,4.40
2022-11-16T19:03:49.656Z,3.17
2022-11-16T19:06:18.023Z,3.05
2022-11-16T19:08:51.765Z,2.83
2022-11-16T19:11:22.512Z,2.30
2022-11-16T19:14:07.708Z,1.50
2022-11-16T19:16:35.473Z,1.88
2022-11-16T19:19:02.549Z,2.33
2022-11-16T19:21:29.570Z,4.55
2022-11-16T19:23:57.075Z,6.55
2022-11-16T19:26:26.445Z,4.75
2022-11-16T19:28:54.066Z,4.55
2022-11-16T19:31:31.184Z,3.72
2022-11-16T19:34:00.362Z,3.67
2022-11-16T19:36:29.464Z,3.00
2022-11-16T19:38:56.392Z,3.42
2022-11-16T19:41:24.330Z,2.90
2022-11-16T19:43:57.206Z,2.67
2022-11-16T19:46:24.918Z,2.60
2022-11-16T19:48:52.152Z,3.03
2022-11-16T19:51:29.854Z,2.80
2022-11-16T19:53:56.950Z,2.25
2022-11-16T19:56:24.475Z,2.00
2022-11-16T19:58:51.753Z,2.10
2022-11-16T20:01:21.760Z,2.78
2022-11-16T20:03:49.659Z,2.88
2022-11-16T20:06:20.066Z,2.47
2022-11-16T20:08:51.618Z,2.95
2022-11-16T20:11:20.779Z,4.75
2022-11-16T20:13:48.876Z,2.60
2022-11-16T20:16:16.999Z,2.72
2022-11-16T20:18:44.702Z,5.47
2022-11-16T20:21:34.475Z,7.28
2022-11-16T20:24:06.359Z,12.38
2022-11-16T20:26:35.611Z,15.88
2022-11-16T20:29:02.931Z,13.10
2022-11-16T20:31:31.549Z,9.88
2022-11-16T20:34:03.406Z,8.00
2022-11-16T20:36:31.804Z,8.20
2022-11-16T20:38:59.859Z,9.82
2022-11-16T20:41:32.243Z,12.18
2022-11-16T20:46:28.538Z,14.18
2022-11-16T20:48:57.247Z,12.23
2022-11-16T20:51:24.187Z,11.70
2022-11-16T20:53:52.254Z,12.73
2022-11-16T20:56:19.988Z,10.68
2022-11-16T20:58:47.474Z,9.48
2022-11-16T21:01:34.064Z,9.00
2022-11-16T21:04:03.605Z,9.85
2022-11-16T21:06:30.814Z,11.32
2022-11-16T21:08:57.726Z,8.35
2022-11-16T21:11:28.220Z,9.02
2022-11-16T21:14:14.062Z,7.90
2022-11-16T21:16:41.039Z,7.55
2022-11-16T21:19:08.224Z,10.50
2022-11-16T21:21:35.137Z,11.23
2022-11-16T21:24:02.246Z,10.38
2022-11-16T21:26:30.816Z,9.52
2022-11-16T21:28:58.713Z,9.80
2022-11-16T21:31:31.651Z,9.65
2022-11-16T21:34:00.748Z,7.85
2022-11-16T21:36:29.785Z,8.18
2022-11-16T21:38:58.140Z,6.82
2022-11-16T21:41:25.573Z,6.63
2022-11-16T21:43:52.417Z,3.80
2022-11-16T21:46:21.931Z,3.17
2022-11-16T21:48:48.953Z,2.08
2022-11-16T21:51:18.277Z,1.88
2022-11-16T21:53:45.218Z,3.28
2022-11-16T21:56:15.173Z,3.33
2022-11-16T21:58:42.601Z,3.30
2022-11-16T22:01:12.063Z,3.35
2022-11-16T22:03:39.425Z,5.30
2022-11-16T22:06:26.815Z,4.13
2022-11-16T22:08:53.574Z,3.95
2022-11-16T22:11:22.378Z,3.40
2022-11-16T22:13:50.049Z,4.50
2022-11-16T22:16:18.108Z,3.72
2022-11-16T22:18:45.247Z,4.18
2022-11-16T22:21:12.066Z,3.97
2022-11-16T22:23:39.212Z,3.72
2022-11-16T22:26:08.816Z,3.75
2022-11-16T22:28:36.443Z,3.45
2022-11-16T22:31:06.110Z,3.83
2022-11-16T22:33:34.087Z,3.20
2022-11-16T22:36:02.604Z,3.45
2022-11-16T22:38:29.572Z,2.53
2022-11-16T22:40:57.541Z,2.15
2022-11-16T22:43:27.204Z,2.47
2022-11-16T22:46:01.911Z,1.80
2022-11-16T22:48:31.491Z,2.10
2022-11-16T22:51:02.861Z,2.17
2022-11-16T22:53:29.601Z,2.30
2022-11-16T22:56:03.554Z,2.20
2022-11-16T22:58:30.320Z,2.28
2022-11-16T23:00:57.312Z,2.10
2022-11-16T23:03:25.233Z,2.83
2022-11-16T23:05:51.984Z,1.63
2022-11-16T23:08:18.733Z,1.90
2022-11-16T23:11:04.277Z,2.40
2022-11-16T23:13:49.864Z,2.15
2022-11-16T23:16:16.567Z,1.98
2022-11-16T23:18:43.364Z,1.98
2022-11-16T23:21:29.586Z,2.58
2022-11-16T23:24:17.605Z,1.83
2022-11-16T23:27:04.589Z,2.20
2022-11-16T23:29:31.342Z,2.28
2022-11-16T23:31:58.509Z,1.75
2022-11-16T23:34:25.245Z,1.77
2022-11-16T23:36:51.988Z,1.77
2022-11-16T23:39:18.752Z,2.78
2022-11-16T23:42:03.838Z,1.40
2022-11-16T23:44:30.644Z,1.55
2022-11-16T23:46:57.355Z,1.70
2022-11-16T23:49:24.044Z,1.95
2022-11-16T23:51:50.760Z,2.15
2022-11-16T23:54:17.513Z,1.98
2022-11-16T23:56:44.238Z,1.55
2022-11-16T23:59:11.101Z,1.60
